Terminal Aerodrome Forecast
Issued by NWS Wakefield, VA

Home | Current Version | Previous Version | Text Only | Print | Product List | Glossary On
Versions: 1 2 3 4 5 6 7 8 9 10 11 12 13 14 15
002
FTUS41 KAKQ 231742 RRA
TAFORF
TAF
KORF 231742Z 2318/2418 01006KT P6SM SCT030 BKN250
     FM232300 VRB03KT P6SM SCT250
     FM241300 04007KT P6SM SCT250=

USA.gov is the U.S. government's official web portal to all federal, state and local government web resources and services.